createdAt,value
2023-02-22T00:04:29.504Z,974.83
2023-02-22T00:09:29.466Z,974.80
2023-02-22T00:14:29.391Z,974.78
2023-02-22T00:19:29.315Z,974.71
2023-02-22T00:24:29.246Z,974.65
2023-02-22T00:29:34.505Z,974.72
2023-02-22T00:34:29.155Z,974.67
2023-02-22T00:39:29.053Z,974.66
2023-02-22T00:44:29.342Z,974.63
2023-02-22T00:49:28.973Z,974.56
2023-02-22T00:54:28.882Z,974.57
2023-02-22T00:59:28.837Z,974.58
2023-02-22T01:04:28.797Z,974.61
2023-02-22T01:09:28.747Z,974.58
2023-02-22T01:14:28.681Z,974.55
2023-02-22T01:19:28.577Z,974.52
2023-02-22T01:24:28.508Z,974.55
2023-02-22T01:29:28.496Z,974.46
2023-02-22T01:34:28.425Z,974.47
2023-02-22T01:39:28.301Z,974.50
2023-02-22T01:44:28.223Z,974.45
2023-02-22T01:49:28.211Z,974.39
2023-02-22T01:54:28.120Z,974.33
2023-02-22T01:59:28.124Z,974.31
2023-02-22T02:04:28.038Z,974.28
2023-02-22T02:09:27.938Z,974.26
2023-02-22T02:14:27.899Z,974.24
2023-02-22T02:19:27.835Z,974.19
2023-02-22T02:24:27.759Z,974.16
2023-02-22T02:29:27.694Z,974.17
2023-02-22T02:34:27.636Z,974.13
2023-02-22T02:39:27.568Z,974.06
2023-02-22T02:44:27.523Z,974.05
2023-02-22T02:49:27.431Z,973.96
2023-02-22T02:54:27.381Z,973.99
2023-02-22T02:59:27.347Z,973.94
2023-02-22T03:04:27.279Z,973.91
2023-02-22T03:09:27.225Z,973.92
2023-02-22T03:14:27.133Z,973.86
2023-02-22T03:19:27.043Z,973.82
2023-02-22T03:24:26.996Z,973.80
2023-02-22T03:29:26.948Z,973.79
2023-02-22T03:34:26.896Z,973.77
2023-02-22T03:39:26.828Z,973.71
2023-02-22T03:44:26.781Z,973.72
2023-02-22T03:49:26.693Z,973.69
2023-02-22T03:54:26.636Z,973.68
2023-02-22T03:59:26.585Z,973.75
2023-02-22T04:04:26.579Z,973.74
2023-02-22T04:09:26.456Z,973.73
2023-02-22T04:14:27.625Z,973.73
2023-02-22T04:19:26.361Z,973.68
2023-02-22T04:24:26.286Z,973.69
2023-02-22T04:29:26.231Z,973.63
2023-02-22T04:34:26.146Z,973.62
2023-02-22T04:39:26.103Z,973.57
2023-02-22T04:44:26.045Z,973.57
2023-02-22T04:49:25.964Z,973.54
2023-02-22T04:54:25.921Z,973.49
2023-02-22T04:59:25.844Z,973.52
2023-02-22T05:04:25.819Z,973.53
2023-02-22T05:09:25.719Z,973.54
2023-02-22T05:14:25.674Z,973.54
2023-02-22T05:19:25.607Z,973.47
2023-02-22T05:24:25.513Z,973.49
2023-02-22T05:29:25.457Z,973.51
2023-02-22T05:34:25.430Z,973.48
2023-02-22T05:39:25.348Z,973.47
2023-02-22T05:44:25.274Z,973.57
2023-02-22T05:49:25.238Z,973.53
2023-02-22T05:54:25.165Z,973.53
2023-02-22T05:59:26.054Z,973.54
2023-02-22T06:04:25.030Z,973.61
2023-02-22T06:09:24.979Z,973.65
2023-02-22T06:14:24.942Z,973.60
2023-02-22T06:19:24.860Z,973.57
2023-02-22T06:24:24.765Z,973.58
2023-02-22T06:29:24.750Z,973.67
2023-02-22T06:34:24.666Z,973.71
2023-02-22T06:39:24.578Z,973.73
2023-02-22T06:44:24.548Z,973.77
2023-02-22T06:49:24.532Z,973.75
2023-02-22T06:54:24.439Z,973.76
2023-02-22T06:59:24.336Z,973.82
2023-02-22T07:04:24.353Z,973.80
2023-02-22T07:09:24.240Z,973.83
2023-02-22T07:14:24.193Z,973.88
2023-02-22T07:19:24.090Z,973.80
2023-02-22T07:24:24.095Z,973.76
2023-02-22T07:29:23.978Z,973.78
2023-02-22T07:34:23.923Z,973.77
2023-02-22T07:39:23.876Z,973.71
2023-02-22T07:44:23.771Z,973.78
2023-02-22T07:49:23.762Z,973.74
2023-02-22T07:54:23.663Z,973.68
2023-02-22T07:59:23.598Z,973.72
2023-02-22T08:04:23.560Z,973.70
2023-02-22T08:09:23.539Z,973.72
2023-02-22T08:14:23.440Z,973.69
2023-02-22T08:19:23.398Z,973.59
2023-02-22T08:24:23.300Z,973.65
2023-02-22T08:29:23.234Z,973.61
2023-02-22T08:34:23.177Z,973.58
2023-02-22T08:39:23.099Z,973.58
2023-02-22T08:44:23.034Z,973.61
2023-02-22T08:49:23.965Z,973.55
2023-02-22T08:54:22.939Z,973.54
2023-02-22T08:59:22.858Z,973.46
2023-02-22T09:04:22.815Z,973.44
2023-02-22T09:09:22.729Z,973.36
2023-02-22T09:14:22.656Z,973.30
2023-02-22T09:19:22.600Z,973.29
2023-02-22T09:24:22.568Z,973.30
2023-02-22T09:29:22.507Z,973.25
2023-02-22T09:34:22.400Z,973.19
2023-02-22T09:39:22.514Z,973.13
2023-02-22T09:44:22.543Z,973.04
2023-02-22T09:49:22.254Z,972.99
2023-02-22T09:54:22.185Z,972.95
2023-02-22T09:59:22.117Z,972.89
2023-02-22T10:04:22.072Z,972.87
2023-02-22T10:09:21.968Z,972.73
2023-02-22T10:14:21.928Z,972.72
2023-02-22T10:19:21.877Z,972.70
2023-02-22T10:24:21.766Z,972.63
2023-02-22T10:29:21.733Z,972.56
2023-02-22T10:34:21.653Z,972.49
2023-02-22T10:39:21.642Z,972.46
2023-02-22T10:44:21.547Z,972.41
2023-02-22T10:49:21.484Z,972.41
2023-02-22T10:54:21.411Z,972.34
2023-02-22T10:59:21.381Z,972.33
2023-02-22T11:04:21.263Z,972.19
2023-02-22T11:09:21.209Z,972.13
2023-02-22T11:14:21.132Z,972.08
2023-02-22T11:19:21.082Z,972.01
2023-02-22T11:25:01.234Z,971.92
2023-02-22T11:29:55.907Z,971.88
2023-02-22T11:35:08.461Z,971.77
2023-02-22T11:39:56.758Z,971.71
2023-02-22T11:44:55.730Z,971.68
2023-02-22T11:49:55.672Z,971.64
2023-02-22T11:54:55.569Z,971.57
2023-02-22T11:59:55.507Z,971.53
2023-02-22T12:04:55.618Z,971.48
2023-02-22T12:09:55.381Z,971.41
2023-02-22T12:14:55.534Z,971.37
2023-02-22T12:19:55.246Z,971.36
2023-02-22T12:25:03.998Z,971.31
2023-02-22T12:29:56.122Z,971.29
2023-02-22T12:34:55.054Z,971.24
2023-02-22T12:39:54.985Z,971.25
2023-02-22T12:44:54.910Z,971.18
2023-02-22T12:49:54.880Z,971.12
2023-02-22T12:54:54.802Z,971.08
2023-02-22T12:59:54.747Z,971.05
2023-02-22T13:04:54.688Z,971.07
2023-02-22T13:09:54.613Z,971.02
2023-02-22T13:14:54.541Z,970.89
2023-02-22T13:19:54.534Z,970.83
2023-02-22T13:24:54.409Z,970.80
2023-02-22T13:29:56.185Z,970.73
2023-02-22T13:34:54.326Z,970.68
2023-02-22T13:39:54.239Z,970.63
2023-02-22T13:44:54.161Z,970.67
2023-02-22T13:49:54.114Z,970.64
2023-02-22T13:54:54.086Z,970.69
2023-02-22T13:59:54.012Z,970.66
2023-02-22T14:04:53.998Z,970.58
2023-02-22T14:09:53.824Z,970.51
2023-02-22T14:14:57.096Z,970.56
2023-02-22T14:19:53.756Z,970.55
2023-02-22T14:24:53.707Z,970.58
2023-02-22T14:29:53.639Z,970.50
2023-02-22T14:34:53.539Z,970.53
2023-02-22T14:39:53.462Z,970.50
2023-02-22T14:44:53.380Z,970.48
2023-02-22T14:49:53.342Z,970.46
2023-02-22T14:54:53.276Z,970.43
2023-02-22T14:59:53.218Z,970.36
2023-02-22T15:04:53.268Z,970.36
2023-02-22T15:09:53.075Z,970.34
2023-02-22T15:14:53.024Z,970.29
2023-02-22T15:19:52.947Z,970.34
2023-02-22T15:24:52.880Z,970.33
2023-02-22T15:29:52.812Z,970.32
2023-02-22T15:34:52.750Z,970.29
2023-02-22T15:39:52.684Z,970.25
2023-02-22T15:44:57.998Z,970.23
2023-02-22T15:49:52.554Z,970.24
2023-02-22T15:54:52.493Z,970.22
2023-02-22T15:59:52.415Z,970.25
2023-02-22T16:04:59.559Z,970.19
2023-02-22T16:09:53.290Z,970.21
2023-02-22T16:14:56.219Z,970.24
2023-02-22T16:19:52.169Z,970.30
2023-02-22T16:24:52.164Z,970.28
2023-02-22T16:29:52.066Z,970.26
2023-02-22T16:34:52.019Z,970.32
2023-02-22T16:39:51.918Z,970.33
2023-02-22T16:44:57.211Z,970.40
2023-02-22T16:49:51.793Z,970.41
2023-02-22T16:54:51.732Z,970.38
2023-02-22T16:59:51.683Z,970.41
2023-02-22T17:04:51.613Z,970.39
2023-02-22T17:09:51.575Z,970.43
2023-02-22T17:14:51.509Z,970.43
2023-02-22T17:19:51.445Z,970.51
2023-02-22T17:24:51.338Z,970.52
2023-02-22T17:29:51.297Z,970.52
2023-02-22T17:34:51.253Z,970.53
2023-02-22T17:39:51.171Z,970.47
2023-02-22T17:44:51.104Z,970.46
2023-02-22T17:49:51.043Z,970.47
2023-02-22T17:54:50.998Z,970.50
2023-02-22T17:59:50.895Z,970.49
2023-02-22T18:04:50.854Z,970.43
2023-02-22T18:09:50.790Z,970.48
2023-02-22T18:14:50.715Z,970.48
2023-02-22T18:19:50.736Z,970.47
2023-02-22T18:24:50.587Z,970.46
2023-02-22T18:29:50.905Z,970.40
2023-02-22T18:34:50.513Z,970.43
2023-02-22T18:39:50.451Z,970.37
2023-02-22T18:44:50.358Z,970.33
2023-02-22T18:49:50.285Z,970.32
2023-02-22T18:54:50.225Z,970.28
2023-02-22T18:59:56.958Z,970.30
2023-02-22T19:04:50.088Z,970.32
2023-02-22T19:09:50.053Z,970.29
2023-02-22T19:14:50.002Z,970.26
2023-02-22T19:19:49.926Z,970.30
2023-02-22T19:24:49.833Z,970.28
2023-02-22T19:29:49.799Z,970.33
2023-02-22T19:34:49.699Z,970.34
2023-02-22T19:39:49.633Z,970.38
2023-02-22T19:44:49.592Z,970.41
2023-02-22T19:49:49.508Z,970.47
2023-02-22T19:54:49.454Z,970.46
2023-02-22T19:59:49.398Z,970.52
2023-02-22T20:04:49.362Z,970.50
2023-02-22T20:09:49.290Z,970.57
2023-02-22T20:14:49.195Z,970.58
2023-02-22T20:19:49.152Z,970.57
2023-02-22T20:24:49.081Z,970.56
2023-02-22T20:29:49.005Z,970.61
2023-02-22T20:34:48.957Z,970.66
2023-02-22T20:39:48.877Z,970.67
2023-02-22T20:44:48.858Z,970.68
2023-02-22T20:49:48.761Z,970.63
2023-02-22T20:54:48.720Z,970.64
2023-02-22T20:59:48.691Z,970.72
2023-02-22T21:04:48.595Z,970.73
2023-02-22T21:09:48.512Z,970.69
2023-02-22T21:14:48.476Z,970.68
2023-02-22T21:19:48.379Z,970.76
2023-02-22T21:24:48.323Z,970.77
2023-02-22T21:29:48.270Z,970.78
2023-02-22T21:34:48.196Z,970.78
2023-02-22T21:39:48.191Z,970.78
2023-02-22T21:44:48.089Z,970.71
2023-02-22T21:49:48.011Z,970.74
2023-02-22T21:54:47.983Z,970.77
2023-02-22T21:59:47.858Z,970.72
2023-02-22T22:04:47.820Z,970.74
2023-02-22T22:09:47.765Z,970.78
2023-02-22T22:14:48.024Z,970.71
2023-02-22T22:19:47.621Z,970.75
2023-02-22T22:24:47.533Z,970.62
2023-02-22T22:29:47.507Z,970.73
2023-02-22T22:34:47.421Z,970.71
2023-02-22T22:39:47.375Z,970.72
2023-02-22T22:44:47.293Z,970.67
2023-02-22T22:49:47.233Z,970.66
2023-02-22T22:54:47.190Z,970.66
2023-02-22T22:59:47.117Z,970.76
2023-02-22T23:04:47.033Z,970.78
2023-02-22T23:09:46.972Z,970.82
2023-02-22T23:14:46.888Z,970.79
2023-02-22T23:19:47.598Z,970.85
2023-02-22T23:24:46.795Z,970.83
2023-02-22T23:29:47.134Z,970.83
2023-02-22T23:34:46.596Z,970.86
2023-02-22T23:39:46.544Z,970.83
2023-02-22T23:44:46.479Z,970.84
2023-02-22T23:49:46.422Z,970.86
2023-02-22T23:54:46.353Z,970.86
2023-02-22T23:59:46.261Z,970.83
